createdAt,value
2022-07-31T04:00:31.244Z,2.30
2022-07-31T04:05:31.194Z,2.00
2022-07-31T04:10:31.127Z,1.90
2022-07-31T04:15:31.076Z,2.20
2022-07-31T04:20:31.019Z,2.20
2022-07-31T04:25:30.968Z,2.10
2022-07-31T04:30:30.941Z,2.30
2022-07-31T04:35:30.859Z,2.30
2022-07-31T04:40:30.800Z,2.20
2022-07-31T04:45:30.743Z,2.40
2022-07-31T04:50:30.688Z,2.50
2022-07-31T04:55:30.635Z,2.40
2022-07-31T05:00:30.582Z,2.30
2022-07-31T05:05:30.613Z,2.50
2022-07-31T05:10:30.563Z,2.40
2022-07-31T05:15:30.421Z,2.60
2022-07-31T05:20:30.368Z,2.50
2022-07-31T05:25:30.315Z,2.70
2022-07-31T05:30:30.904Z,2.30
2022-07-31T05:35:30.201Z,2.40
2022-07-31T05:40:30.153Z,2.20
2022-07-31T05:45:30.101Z,2.40
2022-07-31T05:50:30.047Z,2.60
2022-07-31T05:55:29.994Z,2.40
2022-07-31T06:00:29.946Z,2.60
2022-07-31T06:05:29.883Z,2.70
2022-07-31T06:10:29.836Z,2.50
2022-07-31T06:15:34.389Z,2.30
2022-07-31T06:20:30.724Z,2.30
2022-07-31T06:25:31.833Z,2.50
2022-07-31T06:30:30.624Z,2.30
2022-07-31T06:35:29.552Z,2.20
2022-07-31T06:40:29.512Z,2.50
2022-07-31T06:45:48.866Z,2.10
2022-07-31T06:50:30.403Z,2.00
2022-07-31T06:55:29.333Z,2.00
2022-07-31T07:00:29.299Z,1.70
2022-07-31T07:05:29.250Z,2.20
2022-07-31T07:10:29.173Z,2.20
2022-07-31T07:15:29.133Z,2.30
2022-07-31T07:20:29.082Z,2.10
2022-07-31T07:25:29.012Z,2.40
2022-07-31T07:30:28.979Z,2.50
2022-07-31T07:35:33.821Z,2.40
2022-07-31T07:40:29.875Z,2.30
2022-07-31T07:45:28.805Z,1.80
2022-07-31T07:50:29.486Z,1.80
2022-07-31T07:55:37.426Z,1.70
2022-07-31T08:00:29.662Z,1.80
2022-07-31T08:05:28.593Z,1.90
2022-07-31T08:10:28.560Z,1.80
2022-07-31T08:15:28.499Z,2.10
2022-07-31T08:20:28.438Z,1.90
2022-07-31T08:25:31.977Z,1.70
2022-07-31T08:30:30.684Z,1.60
2022-07-31T08:35:28.282Z,1.40
2022-07-31T08:40:28.243Z,1.20
2022-07-31T08:45:28.182Z,1.80
2022-07-31T08:50:28.114Z,1.60
2022-07-31T08:55:55.910Z,1.50
2022-07-31T09:00:29.025Z,1.30
2022-07-31T09:05:27.958Z,1.50
2022-07-31T09:10:28.923Z,1.80
2022-07-31T09:15:27.868Z,2.10
2022-07-31T09:20:27.833Z,1.90
2022-07-31T09:25:27.747Z,1.90
2022-07-31T09:30:27.707Z,1.70
2022-07-31T09:35:27.670Z,1.70
2022-07-31T09:40:27.595Z,1.60
2022-07-31T09:45:27.552Z,1.50
2022-07-31T09:50:27.709Z,1.20
2022-07-31T09:55:27.434Z,1.30
2022-07-31T10:00:27.394Z,1.60
2022-07-31T10:05:27.360Z,1.50
2022-07-31T10:10:27.280Z,1.70
2022-07-31T10:15:27.245Z,1.40
2022-07-31T10:20:27.188Z,1.40
2022-07-31T10:25:27.126Z,1.60
2022-07-31T10:30:28.299Z,1.80
2022-07-31T10:35:27.031Z,1.80
2022-07-31T10:40:27.006Z,1.80
2022-07-31T10:45:26.931Z,2.00
2022-07-31T10:50:26.876Z,1.90
2022-07-31T10:55:26.820Z,1.80
2022-07-31T11:00:28.371Z,1.60
2022-07-31T11:05:26.719Z,1.80
2022-07-31T11:10:26.668Z,1.80
2022-07-31T11:15:26.619Z,1.90
2022-07-31T11:20:26.562Z,1.50
2022-07-31T11:25:26.513Z,1.30
2022-07-31T11:30:26.461Z,1.40
2022-07-31T11:35:26.410Z,1.40
2022-07-31T11:40:27.346Z,1.20
2022-07-31T11:45:26.308Z,1.30
2022-07-31T11:50:27.246Z,1.60
2022-07-31T11:55:26.302Z,1.90
2022-07-31T12:00:29.712Z,1.90
2022-07-31T12:05:37.599Z,1.40
2022-07-31T12:10:27.041Z,1.30
2022-07-31T12:15:25.996Z,1.10
2022-07-31T12:20:35.420Z,1.60
2022-07-31T12:25:26.919Z,1.30
2022-07-31T12:30:29.896Z,1.40
2022-07-31T12:35:25.779Z,1.20
2022-07-31T12:40:26.737Z,1.50
2022-07-31T12:45:25.658Z,0.90
2022-07-31T12:50:25.620Z,1.20
2022-07-31T12:55:25.576Z,1.30
2022-07-31T13:00:25.517Z,1.30
2022-07-31T13:05:25.471Z,1.20
2022-07-31T13:10:32.086Z,1.50
2022-07-31T13:15:25.366Z,1.60
2022-07-31T13:20:25.306Z,1.20
2022-07-31T13:25:25.260Z,1.70
2022-07-31T13:30:25.272Z,1.40
2022-07-31T13:35:27.560Z,1.40
2022-07-31T13:40:25.100Z,1.30
2022-07-31T13:45:25.048Z,1.60
2022-07-31T13:50:25.017Z,1.60
2022-07-31T13:55:24.942Z,2.10
2022-07-31T14:00:24.889Z,1.70
2022-07-31T14:05:26.717Z,1.60
2022-07-31T14:10:24.788Z,2.10
2022-07-31T14:15:29.912Z,1.80
2022-07-31T14:20:25.853Z,2.20
2022-07-31T14:25:24.630Z,1.60
2022-07-31T14:30:24.576Z,2.20
2022-07-31T14:35:24.572Z,2.00
2022-07-31T14:40:24.578Z,1.90
2022-07-31T14:45:24.424Z,1.70
2022-07-31T14:50:24.494Z,2.10
2022-07-31T14:55:24.312Z,2.20
2022-07-31T15:00:24.261Z,2.00
2022-07-31T15:06:39.279Z,2.00
2022-07-31T15:10:25.152Z,1.60
2022-07-31T15:15:24.106Z,1.80
2022-07-31T15:20:28.915Z,2.00
2022-07-31T15:25:24.000Z,2.10
2022-07-31T15:30:23.947Z,2.00
2022-07-31T15:35:23.997Z,2.00
2022-07-31T15:40:23.844Z,2.20
2022-07-31T15:45:23.793Z,2.30
2022-07-31T15:50:23.742Z,2.40
2022-07-31T15:55:23.679Z,2.40
2022-07-31T16:00:23.618Z,2.60
2022-07-31T16:05:36.566Z,2.80
2022-07-31T16:10:24.534Z,2.20
2022-07-31T16:15:30.512Z,2.40
2022-07-31T16:20:26.282Z,2.30
2022-07-31T16:25:23.372Z,2.30
2022-07-31T16:30:23.332Z,2.00
2022-07-31T16:35:23.251Z,2.10
2022-07-31T16:40:30.047Z,2.20
2022-07-31T16:45:24.169Z,2.10
2022-07-31T16:50:23.092Z,2.40
2022-07-31T16:55:46.084Z,2.10
2022-07-31T17:00:23.995Z,2.10
2022-07-31T17:05:22.924Z,2.30
2022-07-31T17:10:22.890Z,1.80
2022-07-31T17:15:22.847Z,1.70
2022-07-31T17:20:22.767Z,2.10
2022-07-31T17:25:22.726Z,1.60
2022-07-31T17:30:22.682Z,1.10
2022-07-31T17:35:22.603Z,1.30
2022-07-31T17:40:42.407Z,1.30
2022-07-31T17:45:23.520Z,1.30
2022-07-31T17:50:22.444Z,1.40
2022-07-31T17:55:22.399Z,1.10
2022-07-31T18:00:22.369Z,0.90
2022-07-31T18:05:23.300Z,1.10
2022-07-31T18:10:38.584Z,1.10
2022-07-31T18:15:23.191Z,1.50
2022-07-31T18:20:23.136Z,1.80
2022-07-31T18:25:22.070Z,1.90
2022-07-31T18:30:22.054Z,2.10
2022-07-31T18:35:21.971Z,1.90
2022-07-31T18:40:21.918Z,1.80
2022-07-31T18:45:21.865Z,2.10
2022-07-31T18:51:01.370Z,2.20
2022-07-31T18:55:22.752Z,2.30
2022-07-31T19:00:21.712Z,2.10
2022-07-31T19:05:22.007Z,2.40
2022-07-31T19:10:29.536Z,2.20
2022-07-31T19:15:22.541Z,2.40
2022-07-31T19:20:57.519Z,2.20
2022-07-31T19:25:22.434Z,3.10
2022-07-31T19:30:21.385Z,3.80
2022-07-31T19:35:21.343Z,3.60
2022-07-31T19:40:21.256Z,3.70
2022-07-31T19:45:21.218Z,2.90
2022-07-31T19:50:21.162Z,3.30
2022-07-31T19:55:21.114Z,3.20
2022-07-31T20:00:21.054Z,3.20
2022-07-31T20:05:20.994Z,3.10
2022-07-31T20:10:20.944Z,3.20
2022-07-31T20:15:20.887Z,3.10
2022-07-31T20:20:20.844Z,3.30
2022-07-31T20:25:20.839Z,3.20
2022-07-31T20:30:20.726Z,3.30
2022-07-31T20:35:33.087Z,3.90
2022-07-31T20:40:21.613Z,4.20
2022-07-31T20:45:20.570Z,5.10
2022-07-31T20:50:20.506Z,5.30
2022-07-31T20:55:20.452Z,6.70
2022-07-31T21:00:20.390Z,6.40
2022-07-31T21:05:26.919Z,7.10
2022-07-31T21:10:21.284Z,6.40
2022-07-31T21:15:43.764Z,6.40
2022-07-31T21:20:21.174Z,6.30
2022-07-31T21:25:21.124Z,6.00
2022-07-31T21:30:20.069Z,5.70
2022-07-31T21:35:36.253Z,5.50
2022-07-31T21:40:20.957Z,4.60
2022-07-31T21:45:19.905Z,5.10
2022-07-31T21:50:29.067Z,4.90
2022-07-31T21:55:20.799Z,5.40
2022-07-31T22:00:19.743Z,5.10
2022-07-31T22:05:20.696Z,5.10
2022-07-31T22:10:19.623Z,5.00
2022-07-31T22:15:19.577Z,5.40
2022-07-31T22:20:19.539Z,5.00
2022-07-31T22:25:19.465Z,5.00
2022-07-31T22:30:19.418Z,4.80
2022-07-31T22:35:19.362Z,5.40
2022-07-31T22:40:19.299Z,5.30
2022-07-31T22:45:19.258Z,5.30
2022-07-31T22:50:19.213Z,4.80
2022-07-31T22:55:19.131Z,5.10
2022-07-31T23:00:19.091Z,5.40
2022-07-31T23:05:19.037Z,5.40
2022-07-31T23:10:19.025Z,5.00
2022-07-31T23:15:18.931Z,5.10
2022-07-31T23:20:18.883Z,5.20
2022-07-31T23:25:18.832Z,4.80
